sensor_id;sensor_type;location;lat;lon;timestamp;pressure;altitude;pressure_sealevel;temperature;humidity
18509;BME280;9383;50.928;12.116;2023-04-07T00:01:04;99010.28;;;-1.21;77.16
18509;BME280;9383;50.928;12.116;2023-04-07T00:03:31;99012.84;;;-1.25;77.19
18509;BME280;9383;50.928;12.116;2023-04-07T00:05:59;99012.78;;;-1.29;77.50
18509;BME280;9383;50.928;12.116;2023-04-07T00:08:25;99001.50;;;-1.32;77.09
18509;BME280;9383;50.928;12.116;2023-04-07T00:10:52;99004.88;;;-1.36;77.05
18509;BME280;9383;50.928;12.116;2023-04-07T00:13:19;99003.94;;;-1.40;77.25
18509;BME280;9383;50.928;12.116;2023-04-07T00:15:46;99012.56;;;-1.44;77.29
18509;BME280;9383;50.928;12.116;2023-04-07T00:18:12;99009.03;;;-1.48;77.14
18509;BME280;9383;50.928;12.116;2023-04-07T00:20:39;99002.06;;;-1.52;77.40
18509;BME280;9383;50.928;12.116;2023-04-07T00:23:06;99002.88;;;-1.54;76.98
18509;BME280;9383;50.928;12.116;2023-04-07T00:25:32;98997.59;;;-1.59;76.91
18509;BME280;9383;50.928;12.116;2023-04-07T00:27:59;98997.56;;;-1.62;77.03
18509;BME280;9383;50.928;12.116;2023-04-07T00:30:25;99000.97;;;-1.66;77.10
18509;BME280;9383;50.928;12.116;2023-04-07T00:32:52;99000.06;;;-1.70;77.95
18509;BME280;9383;50.928;12.116;2023-04-07T00:35:38;99000.00;;;-1.73;78.00
18509;BME280;9383;50.928;12.116;2023-04-07T00:38:05;98995.63;;;-1.76;77.90
18509;BME280;9383;50.928;12.116;2023-04-07T00:40:31;98998.16;;;-1.80;78.05
18509;BME280;9383;50.928;12.116;2023-04-07T00:42:58;98986.00;;;-1.83;78.53
18509;BME280;9383;50.928;12.116;2023-04-07T00:45:25;98997.22;;;-1.86;78.67
18509;BME280;9383;50.928;12.116;2023-04-07T00:47:51;98994.59;;;-1.89;79.00
18509;BME280;9383;50.928;12.116;2023-04-07T00:50:20;98989.31;;;-1.93;78.63
18509;BME280;9383;50.928;12.116;2023-04-07T00:52:46;98995.34;;;-1.94;78.88
18509;BME280;9383;50.928;12.116;2023-04-07T00:55:13;98982.28;;;-1.99;78.44
18509;BME280;9383;50.928;12.116;2023-04-07T00:57:41;98984.00;;;-2.01;79.05
18509;BME280;9383;50.928;12.116;2023-04-07T01:00:09;98981.31;;;-2.04;78.98
18509;BME280;9383;50.928;12.116;2023-04-07T01:02:42;98980.41;;;-2.08;78.88
18509;BME280;9383;50.928;12.116;2023-04-07T01:08:12;98977.72;;;-2.14;78.88
18509;BME280;9383;50.928;12.116;2023-04-07T01:10:55;98973.34;;;-2.15;79.16
18509;BME280;9383;50.928;12.116;2023-04-07T01:13:37;98975.03;;;-2.19;79.05
18509;BME280;9383;50.928;12.116;2023-04-07T01:16:11;98968.91;;;-2.22;78.96
18509;BME280;9383;50.928;12.116;2023-04-07T01:19:12;98968.00;;;-2.26;79.07
18509;BME280;9383;50.928;12.116;2023-04-07T01:21:43;98965.31;;;-2.29;79.26
18509;BME280;9383;50.928;12.116;2023-04-07T01:26:42;98976.50;;;-2.33;79.73
18509;BME280;9383;50.928;12.116;2023-04-07T01:29:59;98973.88;;;-2.35;79.79
18509;BME280;9383;50.928;12.116;2023-04-07T01:32:19;98971.28;;;-2.36;80.42
18509;BME280;9383;50.928;12.116;2023-04-07T01:34:51;98968.69;;;-2.36;80.57
18509;BME280;9383;50.928;12.116;2023-04-07T01:37:19;98960.84;;;-2.39;80.83
18509;BME280;9383;50.928;12.116;2023-04-07T01:39:47;98955.56;;;-2.43;81.22
18509;BME280;9383;50.928;12.116;2023-04-07T01:42:14;98965.09;;;-2.43;81.01
18509;BME280;9383;50.928;12.116;2023-04-07T01:44:42;98955.53;;;-2.46;81.22
18509;BME280;9383;50.928;12.116;2023-04-07T01:47:10;98958.94;;;-2.48;81.35
18509;BME280;9383;50.928;12.116;2023-04-07T01:49:37;98952.84;;;-2.50;81.18
18509;BME280;9383;50.928;12.116;2023-04-07T01:52:06;98951.06;;;-2.55;81.31
18509;BME280;9383;50.928;12.116;2023-04-07T01:54:34;98951.88;;;-2.57;81.48
18509;BME280;9383;50.928;12.116;2023-04-07T01:57:02;98957.91;;;-2.58;81.44
18509;BME280;9383;50.928;12.116;2023-04-07T01:59:29;98957.00;;;-2.60;81.57
18509;BME280;9383;50.928;12.116;2023-04-07T02:01:56;98957.84;;;-2.61;81.33
18509;BME280;9383;50.928;12.116;2023-04-07T02:04:42;98950.91;;;-2.62;81.46
18509;BME280;9383;50.928;12.116;2023-04-07T02:09:49;98946.50;;;-2.66;82.14
18509;BME280;9383;50.928;12.116;2023-04-07T02:12:17;98939.56;;;-2.67;82.37
18509;BME280;9383;50.928;12.116;2023-04-07T02:14:43;98945.59;;;-2.69;83.06
18509;BME280;9383;50.928;12.116;2023-04-07T02:17:11;98943.00;;;-2.69;83.22
18509;BME280;9383;50.928;12.116;2023-04-07T02:19:40;98942.09;;;-2.71;83.44
18509;BME280;9383;50.928;12.116;2023-04-07T02:22:08;98948.19;;;-2.70;83.56
18509;BME280;9383;50.928;12.116;2023-04-07T02:24:36;98941.25;;;-2.70;83.83
18509;BME280;9383;50.928;12.116;2023-04-07T02:27:02;98935.97;;;-2.74;83.87
18509;BME280;9383;50.928;12.116;2023-04-07T02:29:29;98934.28;;;-2.72;83.98
18509;BME280;9383;50.928;12.116;2023-04-07T02:31:55;98939.47;;;-2.74;84.10
18509;BME280;9383;50.928;12.116;2023-04-07T02:34:22;98939.41;;;-2.75;84.08
18509;BME280;9383;50.928;12.116;2023-04-07T02:36:49;98938.56;;;-2.76;84.15
18509;BME280;9383;50.928;12.116;2023-04-07T02:39:16;98931.63;;;-2.77;84.46
18509;BME280;9383;50.928;12.116;2023-04-07T02:41:42;98929.00;;;-2.78;84.34
18509;BME280;9383;50.928;12.116;2023-04-07T02:44:09;98926.34;;;-2.80;84.15
18509;BME280;9383;50.928;12.116;2023-04-07T02:46:35;98927.19;;;-2.83;84.36
18509;BME280;9383;50.928;12.116;2023-04-07T02:49:02;98928.91;;;-2.83;84.16
18509;BME280;9383;50.928;12.116;2023-04-07T02:51:29;98930.66;;;-2.84;84.39
18509;BME280;9383;50.928;12.116;2023-04-07T02:53:55;98928.00;;;-2.85;84.33
18509;BME280;9383;50.928;12.116;2023-04-07T02:56:21;98925.38;;;-2.87;84.20
18509;BME280;9383;50.928;12.116;2023-04-07T02:58:48;98939.19;;;-2.88;84.23
18509;BME280;9383;50.928;12.116;2023-04-07T03:01:16;98933.09;;;-2.90;84.03
18509;BME280;9383;50.928;12.116;2023-04-07T03:03:44;98934.00;;;-2.89;84.15
18509;BME280;9383;50.928;12.116;2023-04-07T03:06:13;98923.63;;;-2.89;84.53
18509;BME280;9383;50.928;12.116;2023-04-07T03:08:39;98927.06;;;-2.90;84.36
18509;BME280;9383;50.928;12.116;2023-04-07T03:11:07;98924.47;;;-2.90;84.67
18509;BME280;9383;50.928;12.116;2023-04-07T03:13:34;98928.75;;;-2.91;84.87
18509;BME280;9383;50.928;12.116;2023-04-07T03:16:00;98927.06;;;-2.90;84.90
18509;BME280;9383;50.928;12.116;2023-04-07T03:18:27;98921.88;;;-2.90;84.85
18509;BME280;9383;50.928;12.116;2023-04-07T03:20:54;98924.44;;;-2.92;84.83
18509;BME280;9383;50.928;12.116;2023-04-07T03:23:21;98914.00;;;-2.93;84.77
18509;BME280;9383;50.928;12.116;2023-04-07T03:25:49;98917.50;;;-2.93;84.90
18509;BME280;9383;50.928;12.116;2023-04-07T03:28:16;98920.03;;;-2.94;85.09
18509;BME280;9383;50.928;12.116;2023-04-07T03:30:42;98924.38;;;-2.93;85.02
18509;BME280;9383;50.928;12.116;2023-04-07T03:33:09;98919.19;;;-2.95;84.90
18509;BME280;9383;50.928;12.116;2023-04-07T03:35:36;98913.97;;;-2.97;84.93
18509;BME280;9383;50.928;12.116;2023-04-07T03:38:03;98918.25;;;-2.99;84.77
18509;BME280;9383;50.928;12.116;2023-04-07T03:40:29;98924.28;;;-3.00;84.82
18509;BME280;9383;50.928;12.116;2023-04-07T03:42:55;98920.78;;;-3.02;84.78
18509;BME280;9383;50.928;12.116;2023-04-07T03:45:22;98917.31;;;-3.02;84.52
18509;BME280;9383;50.928;12.116;2023-04-07T03:47:49;98915.59;;;-3.02;85.57
18509;BME280;9383;50.928;12.116;2023-04-07T03:50:17;98920.78;;;-3.02;85.96
18509;BME280;9383;50.928;12.116;2023-04-07T03:52:43;98912.97;;;-3.03;85.77
18509;BME280;9383;50.928;12.116;2023-04-07T03:55:09;98918.16;;;-3.03;85.76
18509;BME280;9383;50.928;12.116;2023-04-07T03:57:36;98920.69;;;-3.06;85.95
18509;BME280;9383;50.928;12.116;2023-04-07T04:00:04;98921.56;;;-3.06;85.64
18509;BME280;9383;50.928;12.116;2023-04-07T04:02:32;98922.38;;;-3.08;85.54
18509;BME280;9383;50.928;12.116;2023-04-07T04:04:59;98923.22;;;-3.09;85.89
18509;BME280;9383;50.928;12.116;2023-04-07T04:07:26;98931.88;;;-3.09;85.83
18509;BME280;9383;50.928;12.116;2023-04-07T04:09:52;98919.78;;;-3.08;86.02
18509;BME280;9383;50.928;12.116;2023-04-07T04:12:19;98927.56;;;-3.08;86.02
18509;BME280;9383;50.928;12.116;2023-04-07T04:14:47;98936.22;;;-3.08;86.52
18509;BME280;9383;50.928;12.116;2023-04-07T04:17:14;98920.66;;;-3.09;86.58
18509;BME280;9383;50.928;12.116;2023-04-07T04:19:42;98932.75;;;-3.08;86.76
18509;BME280;9383;50.928;12.116;2023-04-07T04:22:09;98924.09;;;-3.09;86.77
18509;BME280;9383;50.928;12.116;2023-04-07T04:24:44;98933.63;;;-3.08;86.86
18509;BME280;9383;50.928;12.116;2023-04-07T04:27:11;98927.56;;;-3.08;87.50
18509;BME280;9383;50.928;12.116;2023-04-07T04:29:38;98926.72;;;-3.07;87.72
18509;BME280;9383;50.928;12.116;2023-04-07T04:32:04;98926.69;;;-3.09;87.69
18509;BME280;9383;50.928;12.116;2023-04-07T04:34:31;98937.94;;;-3.08;87.69
18509;BME280;9383;50.928;12.116;2023-04-07T04:36:57;98933.59;;;-3.09;87.80
18509;BME280;9383;50.928;12.116;2023-04-07T04:39:24;98928.44;;;-3.09;87.77
18509;BME280;9383;50.928;12.116;2023-04-07T04:41:52;98936.19;;;-3.09;87.60
18509;BME280;9383;50.928;12.116;2023-04-07T04:44:18;98933.56;;;-3.11;87.50
18509;BME280;9383;50.928;12.116;2023-04-07T04:46:45;98935.31;;;-3.10;87.53
18509;BME280;9383;50.928;12.116;2023-04-07T04:49:11;98935.31;;;-3.10;87.78
18509;BME280;9383;50.928;12.116;2023-04-07T04:51:38;98922.34;;;-3.10;87.85
18509;BME280;9383;50.928;12.116;2023-04-07T04:54:04;98930.19;;;-3.07;88.41
18509;BME280;9383;50.928;12.116;2023-04-07T04:56:32;98928.47;;;-3.06;88.54
18509;BME280;9383;50.928;12.116;2023-04-07T04:58:58;98937.13;;;-3.06;88.44
18509;BME280;9383;50.928;12.116;2023-04-07T05:01:25;98931.06;;;-3.05;88.33
18509;BME280;9383;50.928;12.116;2023-04-07T05:03:51;98933.72;;;-3.03;88.38
18509;BME280;9383;50.928;12.116;2023-04-07T05:06:18;98939.84;;;-3.00;88.59
18509;BME280;9383;50.928;12.116;2023-04-07T05:08:45;98939.00;;;-2.99;88.76
18509;BME280;9383;50.928;12.116;2023-04-07T05:11:12;98933.00;;;-2.96;88.80
18509;BME280;9383;50.928;12.116;2023-04-07T05:13:38;98932.16;;;-2.95;88.82
18509;BME280;9383;50.928;12.116;2023-04-07T05:16:05;98932.22;;;-2.92;88.63
18509;BME280;9383;50.928;12.116;2023-04-07T05:18:32;98933.16;;;-2.88;89.16
18509;BME280;9383;50.928;12.116;2023-04-07T05:21:00;98930.59;;;-2.85;89.34
18509;BME280;9383;50.928;12.116;2023-04-07T05:23:30;98941.94;;;-2.80;89.67
18509;BME280;9383;50.928;12.116;2023-04-07T05:25:57;98942.06;;;-2.74;89.84
18509;BME280;9383;50.928;12.116;2023-04-07T05:28:23;98874.97;;;-3.03;90.04
18509;BME280;9383;50.928;12.116;2023-04-07T05:30:52;98937.09;;;-2.60;90.51
18509;BME280;9383;50.928;12.116;2023-04-07T05:33:19;98938.13;;;-2.51;90.48
18509;BME280;9383;50.928;12.116;2023-04-07T05:35:46;98936.56;;;-2.42;90.84
18509;BME280;9383;50.928;12.116;2023-04-07T05:38:13;98931.53;;;-2.32;91.14
18509;BME280;9383;50.928;12.116;2023-04-07T05:40:41;98930.84;;;-2.22;91.42
18509;BME280;9383;50.928;12.116;2023-04-07T05:43:09;98927.53;;;-2.12;91.69
18509;BME280;9383;50.928;12.116;2023-04-07T05:45:36;98926.84;;;-2.00;92.17
18509;BME280;9383;50.928;12.116;2023-04-07T05:48:02;98937.44;;;-1.87;92.49
18509;BME280;9383;50.928;12.116;2023-04-07T05:50:29;98929.81;;;-1.76;92.78
18509;BME280;9383;50.928;12.116;2023-04-07T05:52:56;98918.75;;;-1.61;93.11
18509;BME280;9383;50.928;12.116;2023-04-07T05:55:43;98921.59;;;-1.43;92.93
18509;BME280;9383;50.928;12.116;2023-04-07T05:58:09;98928.69;;;-1.29;92.77
18509;BME280;9383;50.928;12.116;2023-04-07T06:00:36;98926.25;;;-1.15;93.71
18509;BME280;9383;50.928;12.116;2023-04-07T06:03:03;98936.91;;;-0.96;93.61
18509;BME280;9383;50.928;12.116;2023-04-07T06:05:29;98930.13;;;-0.79;94.22
18509;BME280;9383;50.928;12.116;2023-04-07T06:07:56;98932.91;;;-0.62;93.84
18509;BME280;9383;50.928;12.116;2023-04-07T06:10:43;98932.25;;;-0.40;94.83
18509;BME280;9383;50.928;12.116;2023-04-07T06:13:11;98935.00;;;-0.23;94.27
18509;BME280;9383;50.928;12.116;2023-04-07T06:15:38;98933.41;;;-0.07;95.07
18509;BME280;9383;50.928;12.116;2023-04-07T06:18:04;98932.66;;;0.09;95.46
18509;BME280;9383;50.928;12.116;2023-04-07T06:20:31;98931.06;;;0.27;95.58
18509;BME280;9383;50.928;12.116;2023-04-07T06:22:58;98935.50;;;0.44;95.50
18509;BME280;9383;50.928;12.116;2023-04-07T06:25:24;98928.63;;;0.60;95.75
18509;BME280;9383;50.928;12.116;2023-04-07T06:27:52;98932.19;;;0.79;96.88
18509;BME280;9383;50.928;12.116;2023-04-07T06:30:21;98931.41;;;0.97;96.56
18509;BME280;9383;50.928;12.116;2023-04-07T06:32:59;98936.69;;;1.17;96.79
18509;BME280;9383;50.928;12.116;2023-04-07T06:35:27;98930.63;;;1.31;96.53
18509;BME280;9383;50.928;12.116;2023-04-07T06:37:54;98928.91;;;1.48;96.78
18509;BME280;9383;50.928;12.116;2023-04-07T06:40:20;98923.72;;;1.67;97.00
18509;BME280;9383;50.928;12.116;2023-04-07T06:42:47;98924.59;;;1.88;97.24
18509;BME280;9383;50.928;12.116;2023-04-07T06:45:13;98930.69;;;2.07;97.20
18509;BME280;9383;50.928;12.116;2023-04-07T06:47:40;98922.81;;;2.25;96.52
18509;BME280;9383;50.928;12.116;2023-04-07T06:50:08;98925.41;;;2.43;96.16
18509;BME280;9383;50.928;12.116;2023-04-07T06:52:35;98925.38;;;2.60;96.10
18509;BME280;9383;50.928;12.116;2023-04-07T06:55:02;98921.81;;;2.79;95.58
18509;BME280;9383;50.928;12.116;2023-04-07T06:57:29;98917.38;;;2.97;95.20
18509;BME280;9383;50.928;12.116;2023-04-07T06:59:55;98912.94;;;3.16;94.40
18509;BME280;9383;50.928;12.116;2023-04-07T07:02:22;98916.28;;;3.38;93.47
18509;BME280;9383;50.928;12.116;2023-04-07T07:04:50;98915.28;;;3.60;93.34
18509;BME280;9383;50.928;12.116;2023-04-07T07:07:16;98918.59;;;3.84;92.41
18509;BME280;9383;50.928;12.116;2023-04-07T07:09:43;98920.16;;;4.05;89.29
18509;BME280;9383;50.928;12.116;2023-04-07T07:12:09;98917.38;;;4.24;85.89
18509;BME280;9383;50.928;12.116;2023-04-07T07:14:36;98919.81;;;4.44;85.66
18509;BME280;9383;50.928;12.116;2023-04-07T07:17:02;98920.47;;;4.63;84.31
18509;BME280;9383;50.928;12.116;2023-04-07T07:19:30;98923.72;;;4.85;84.43
18509;BME280;9383;50.928;12.116;2023-04-07T07:21:58;98925.25;;;5.03;79.22
18509;BME280;9383;50.928;12.116;2023-04-07T07:24:24;98930.25;;;5.22;74.83
18509;BME280;9383;50.928;12.116;2023-04-07T07:26:51;98929.16;;;5.39;74.32
18509;BME280;9383;50.928;12.116;2023-04-07T07:29:18;98932.34;;;5.61;75.39
18509;BME280;9383;50.928;12.116;2023-04-07T07:31:45;98940.00;;;5.78;75.39
18509;BME280;9383;50.928;12.116;2023-04-07T07:34:12;98938.00;;;5.91;74.26
18509;BME280;9383;50.928;12.116;2023-04-07T07:36:39;98938.78;;;5.98;67.72
18509;BME280;9383;50.928;12.116;2023-04-07T07:39:06;98942.97;;;6.13;69.77
18509;BME280;9383;50.928;12.116;2023-04-07T07:41:44;98933.97;;;6.26;70.18
18509;BME280;9383;50.928;12.116;2023-04-07T07:44:12;98934.56;;;6.42;65.47
18509;BME280;9383;50.928;12.116;2023-04-07T07:46:40;98921.94;;;6.60;67.47
18509;BME280;9383;50.928;12.116;2023-04-07T07:49:06;98927.69;;;6.81;68.35
18509;BME280;9383;50.928;12.116;2023-04-07T07:51:33;98928.25;;;6.97;67.18
18509;BME280;9383;50.928;12.116;2023-04-07T07:53:59;98921.88;;;7.07;65.18
18509;BME280;9383;50.928;12.116;2023-04-07T07:56:26;98927.00;;;7.15;61.14
18509;BME280;9383;50.928;12.116;2023-04-07T07:58:55;98929.50;;;7.21;57.64
18509;BME280;9383;50.928;12.116;2023-04-07T08:01:23;98930.03;;;7.37;60.45
18509;BME280;9383;50.928;12.116;2023-04-07T08:03:49;98933.22;;;7.52;58.11
18509;BME280;9383;50.928;12.116;2023-04-07T08:06:16;98932.03;;;7.65;57.69
18509;BME280;9383;50.928;12.116;2023-04-07T08:08:43;98928.22;;;7.79;56.38
18509;BME280;9383;50.928;12.116;2023-04-07T08:11:10;98932.19;;;7.97;58.18
18509;BME280;9383;50.928;12.116;2023-04-07T08:13:37;98929.03;;;8.17;59.26
18509;BME280;9383;50.928;12.116;2023-04-07T08:16:03;98932.88;;;8.40;60.77
18509;BME280;9383;50.928;12.116;2023-04-07T08:18:30;98936.66;;;8.64;61.24
18509;BME280;9383;50.928;12.116;2023-04-07T08:20:57;98934.31;;;8.86;61.29
18509;BME280;9383;50.928;12.116;2023-04-07T08:23:23;98930.22;;;9.06;61.09
18509;BME280;9383;50.928;12.116;2023-04-07T08:25:52;98940.06;;;9.31;60.67
18509;BME280;9383;50.928;12.116;2023-04-07T08:28:19;98936.91;;;9.48;59.59
18509;BME280;9383;50.928;12.116;2023-04-07T08:30:46;98940.09;;;9.60;58.37
18509;BME280;9383;50.928;12.116;2023-04-07T08:33:14;98944.91;;;9.75;56.31
18509;BME280;9383;50.928;12.116;2023-04-07T08:35:41;98943.50;;;9.92;55.30
18509;BME280;9383;50.928;12.116;2023-04-07T08:38:08;98941.09;;;10.11;56.86
18509;BME280;9383;50.928;12.116;2023-04-07T08:40:35;98949.38;;;10.28;56.32
18509;BME280;9383;50.928;12.116;2023-04-07T08:43:08;98946.56;;;10.33;55.78
18509;BME280;9383;50.928;12.116;2023-04-07T08:45:46;98947.28;;;10.38;50.10
18509;BME280;9383;50.928;12.116;2023-04-07T08:48:16;98940.78;;;10.49;50.53
18509;BME280;9383;50.928;12.116;2023-04-07T08:50:45;98931.75;;;10.54;52.67
18509;BME280;9383;50.928;12.116;2023-04-07T08:53:27;98937.47;;;10.67;51.99
18509;BME280;9383;50.928;12.116;2023-04-07T08:55:55;98938.03;;;10.77;48.94
18509;BME280;9383;50.928;12.116;2023-04-07T08:58:24;98928.09;;;10.82;50.07
18509;BME280;9383;50.928;12.116;2023-04-07T09:00:51;98937.94;;;11.04;51.25
18509;BME280;9383;50.928;12.116;2023-04-07T09:03:19;98947.16;;;11.18;51.50
18509;BME280;9383;50.928;12.116;2023-04-07T09:05:47;98945.53;;;11.37;51.96
18509;BME280;9383;50.928;12.116;2023-04-07T09:08:14;98942.31;;;11.53;50.69
18509;BME280;9383;50.928;12.116;2023-04-07T09:10:41;98946.22;;;11.66;48.98
18509;BME280;9383;50.928;12.116;2023-04-07T09:13:08;98940.94;;;11.65;42.99
18509;BME280;9383;50.928;12.116;2023-04-07T09:15:34;98942.38;;;11.74;45.63
18509;BME280;9383;50.928;12.116;2023-04-07T09:18:03;98950.59;;;11.67;46.39
18509;BME280;9383;50.928;12.116;2023-04-07T09:23:31;98942.38;;;11.74;44.34
18509;BME280;9383;50.928;12.116;2023-04-07T09:25:59;98944.72;;;11.81;41.44
18509;BME280;9383;50.928;12.116;2023-04-07T09:28:43;98942.75;;;11.87;43.03
18509;BME280;9383;50.928;12.116;2023-04-07T09:31:10;98935.59;;;11.66;43.82
18509;BME280;9383;50.928;12.116;2023-04-07T09:33:37;98942.59;;;11.45;45.23
18509;BME280;9383;50.928;12.116;2023-04-07T09:36:05;98937.66;;;11.36;45.72
18509;BME280;9383;50.928;12.116;2023-04-07T09:38:34;98940.13;;;11.40;45.75
18509;BME280;9383;50.928;12.116;2023-04-07T09:41:08;98924.69;;;11.50;44.71
18509;BME280;9383;50.928;12.116;2023-04-07T09:43:40;98932.31;;;11.60;45.15
18509;BME280;9383;50.928;12.116;2023-04-07T09:46:15;98924.72;;;11.73;44.95
18509;BME280;9383;50.928;12.116;2023-04-07T09:48:43;98923.97;;;11.91;43.49
18509;BME280;9383;50.928;12.116;2023-04-07T09:51:14;98929.97;;;11.96;43.76
18509;BME280;9383;50.928;12.116;2023-04-07T09:53:49;98928.22;;;11.95;44.22
18509;BME280;9383;50.928;12.116;2023-04-07T09:56:24;98937.63;;;11.82;43.67
18509;BME280;9383;50.928;12.116;2023-04-07T09:58:53;98929.91;;;11.76;42.47
18509;BME280;9383;50.928;12.116;2023-04-07T10:01:21;98926.19;;;11.58;42.64
18509;BME280;9383;50.928;12.116;2023-04-07T10:03:48;98929.56;;;11.61;43.55
18509;BME280;9383;50.928;12.116;2023-04-07T10:06:18;98936.50;;;11.65;45.07
18509;BME280;9383;50.928;12.116;2023-04-07T10:08:47;98924.81;;;11.92;43.99
18509;BME280;9383;50.928;12.116;2023-04-07T10:11:19;98926.97;;;12.06;45.36
18509;BME280;9383;50.928;12.116;2023-04-07T10:13:47;98941.94;;;12.29;45.06
18509;BME280;9383;50.928;12.116;2023-04-07T10:16:14;98925.66;;;12.37;43.66
18509;BME280;9383;50.928;12.116;2023-04-07T10:18:41;98934.56;;;12.36;42.50
18509;BME280;9383;50.928;12.116;2023-04-07T10:21:08;98934.66;;;12.12;41.40
18509;BME280;9383;50.928;12.116;2023-04-07T10:23:42;98926.22;;;12.02;42.89
18509;BME280;9383;50.928;12.116;2023-04-07T10:26:15;98930.28;;;12.11;41.91
18509;BME280;9383;50.928;12.116;2023-04-07T10:28:47;98930.31;;;12.32;40.23
18509;BME280;9383;50.928;12.116;2023-04-07T10:31:18;98929.66;;;12.47;41.43
18509;BME280;9383;50.928;12.116;2023-04-07T10:33:52;98922.13;;;12.57;42.53
18509;BME280;9383;50.928;12.116;2023-04-07T10:36:22;98915.97;;;12.77;43.64
18509;BME280;9383;50.928;12.116;2023-04-07T10:41:38;98910.50;;;12.80;41.28
18509;BME280;9383;50.928;12.116;2023-04-07T10:44:07;98915.31;;;12.51;39.51
18509;BME280;9383;50.928;12.116;2023-04-07T10:49:17;98920.81;;;12.26;40.64
18509;BME280;9383;50.928;12.116;2023-04-07T10:51:44;98918.69;;;12.34;42.24
18509;BME280;9383;50.928;12.116;2023-04-07T10:54:30;98927.28;;;12.41;42.15
18509;BME280;9383;50.928;12.116;2023-04-07T10:57:15;98919.22;;;12.63;42.03
18509;BME280;9383;50.928;12.116;2023-04-07T11:02:38;98917.78;;;12.96;41.13
18509;BME280;9383;50.928;12.116;2023-04-07T11:05:05;98920.09;;;13.04;42.75
18509;BME280;9383;50.928;12.116;2023-04-07T11:07:44;98914.91;;;13.01;41.63
18509;BME280;9383;50.928;12.116;2023-04-07T11:10:12;98918.66;;;12.97;42.11
18509;BME280;9383;50.928;12.116;2023-04-07T11:12:41;98920.34;;;12.78;41.00
18509;BME280;9383;50.928;12.116;2023-04-07T11:15:22;98920.69;;;12.71;41.22
18509;BME280;9383;50.928;12.116;2023-04-07T11:18:19;98915.03;;;12.78;41.30
18509;BME280;9383;50.928;12.116;2023-04-07T11:20:56;98919.88;;;12.89;42.03
18509;BME280;9383;50.928;12.116;2023-04-07T11:23:26;98912.63;;;12.93;41.41
18509;BME280;9383;50.928;12.116;2023-04-07T11:26:00;98913.38;;;12.76;40.55
18509;BME280;9383;50.928;12.116;2023-04-07T11:28:28;98915.69;;;12.63;41.26
18509;BME280;9383;50.928;12.116;2023-04-07T11:30:55;98914.63;;;12.46;39.87
18509;BME280;9383;50.928;12.116;2023-04-07T11:33:24;98922.59;;;12.26;39.56
18509;BME280;9383;50.928;12.116;2023-04-07T11:35:56;98915.50;;;12.26;39.87
18509;BME280;9383;50.928;12.116;2023-04-07T11:38:27;98921.16;;;12.39;39.43
18509;BME280;9383;50.928;12.116;2023-04-07T11:40:55;98851.16;;;12.18;39.31
18509;BME280;9383;50.928;12.116;2023-04-07T11:43:25;98915.50;;;12.68;39.74
18509;BME280;9383;50.928;12.116;2023-04-07T11:46:15;98915.63;;;12.64;38.54
18509;BME280;9383;50.928;12.116;2023-04-07T11:48:44;98910.38;;;12.63;38.59
18509;BME280;9383;50.928;12.116;2023-04-07T11:51:20;98913.50;;;12.52;39.17
18509;BME280;9383;50.928;12.116;2023-04-07T11:53:54;98912.13;;;12.43;39.52
18509;BME280;9383;50.928;12.116;2023-04-07T11:56:21;98912.25;;;12.40;39.22
18509;BME280;9383;50.928;12.116;2023-04-07T11:58:48;98908.31;;;12.28;38.90
18509;BME280;9383;50.928;12.116;2023-04-07T12:01:15;98914.16;;;12.16;38.75
18509;BME280;9383;50.928;12.116;2023-04-07T12:04:03;98909.56;;;12.19;39.31
18509;BME280;9383;50.928;12.116;2023-04-07T12:06:32;98909.72;;;12.16;38.68
18509;BME280;9383;50.928;12.116;2023-04-07T12:09:00;98842.28;;;11.76;40.08
18509;BME280;9383;50.928;12.116;2023-04-07T12:11:28;98904.63;;;12.10;38.78
18509;BME280;9383;50.928;12.116;2023-04-07T12:13:55;98905.06;;;11.99;40.02
18509;BME280;9383;50.928;12.116;2023-04-07T12:16:22;98905.75;;;12.04;40.95
18509;BME280;9383;50.928;12.116;2023-04-07T12:18:49;98909.81;;;12.13;40.05
18509;BME280;9383;50.928;12.116;2023-04-07T12:21:18;98909.72;;;12.16;39.97
18509;BME280;9383;50.928;12.116;2023-04-07T12:23:46;98905.84;;;12.23;38.79
18509;BME280;9383;50.928;12.116;2023-04-07T12:26:12;98910.22;;;12.24;39.37
18509;BME280;9383;50.928;12.116;2023-04-07T12:28:39;98918.09;;;12.28;39.25
18509;BME280;9383;50.928;12.116;2023-04-07T12:31:07;98912.19;;;12.21;39.70
18509;BME280;9383;50.928;12.116;2023-04-07T12:33:33;98907.25;;;12.12;40.02
18509;BME280;9383;50.928;12.116;2023-04-07T12:36:00;98904.13;;;12.02;39.17
18509;BME280;9383;50.928;12.116;2023-04-07T12:38:26;98911.16;;;12.03;39.67
18509;BME280;9383;50.928;12.116;2023-04-07T12:40:54;98902.13;;;12.07;40.19
18509;BME280;9383;50.928;12.116;2023-04-07T12:43:22;98903.72;;;12.11;40.10
18509;BME280;9383;50.928;12.116;2023-04-07T12:45:49;98906.50;;;12.08;40.41
18509;BME280;9383;50.928;12.116;2023-04-07T12:48:16;98908.03;;;12.14;40.48
18509;BME280;9383;50.928;12.116;2023-04-07T12:50:44;98911.16;;;12.23;41.20
18509;BME280;9383;50.928;12.116;2023-04-07T12:53:11;98909.56;;;12.19;39.47
18509;BME280;9383;50.928;12.116;2023-04-07T12:55:37;98907.28;;;12.10;38.12
18509;BME280;9383;50.928;12.116;2023-04-07T12:58:04;98898.94;;;11.97;38.74
18509;BME280;9383;50.928;12.116;2023-04-07T13:00:31;98906.03;;;11.96;40.30
18509;BME280;9383;50.928;12.116;2023-04-07T13:03:03;98911.31;;;11.98;40.62
18509;BME280;9383;50.928;12.116;2023-04-07T13:05:30;98912.00;;;12.03;40.16
18509;BME280;9383;50.928;12.116;2023-04-07T13:08:01;98914.59;;;12.05;41.09
18509;BME280;9383;50.928;12.116;2023-04-07T13:10:30;98908.50;;;12.03;40.30
18509;BME280;9383;50.928;12.116;2023-04-07T13:12:56;98905.91;;;12.00;40.93
18509;BME280;9383;50.928;12.116;2023-04-07T13:15:26;98902.47;;;11.98;40.12
18509;BME280;9383;50.928;12.116;2023-04-07T13:17:54;98905.69;;;11.84;38.43
18509;BME280;9383;50.928;12.116;2023-04-07T13:20:21;98912.34;;;11.72;38.29
18509;BME280;9383;50.928;12.116;2023-04-07T13:22:48;98917.13;;;11.63;38.01
18509;BME280;9383;50.928;12.116;2023-04-07T13:25:15;98907.78;;;11.53;38.53
18509;BME280;9383;50.928;12.116;2023-04-07T13:27:42;98911.47;;;11.49;38.36
18509;BME280;9383;50.928;12.116;2023-04-07T13:30:13;98916.06;;;11.45;37.94